createdAt,value
2022-12-17T00:00:24.552Z,101820.81
2022-12-17T00:03:48.046Z,101816.25
2022-12-17T00:07:09.493Z,101826.91
2022-12-17T00:10:29.822Z,101829.63
2022-12-17T00:13:50.013Z,101826.34
2022-12-17T00:17:11.748Z,101830.47
2022-12-17T00:20:32.000Z,101842.75
2022-12-17T00:23:53.630Z,101839.28
2022-12-17T00:27:16.789Z,101836.56
2022-12-17T00:30:37.042Z,101854.03
2022-12-17T00:33:57.384Z,101847.91
2022-12-17T00:37:18.200Z,101855.16
2022-12-17T00:40:39.782Z,101854.28
2022-12-17T00:43:59.916Z,101867.38
2022-12-17T00:47:20.185Z,101868.97
2022-12-17T00:50:36.733Z,101866.59
2022-12-17T00:53:56.989Z,101871.78
2022-12-17T00:57:18.571Z,101874.31
2022-12-17T01:00:50.289Z,101878.75
2022-12-17T01:04:10.488Z,101882.25
2022-12-17T01:07:30.759Z,101874.50
2022-12-17T01:10:50.966Z,101882.34
2022-12-17T01:14:12.569Z,101881.38
2022-12-17T01:17:32.821Z,101887.59
2022-12-17T01:20:53.212Z,101886.50
2022-12-17T01:24:14.152Z,101897.81
2022-12-17T01:27:34.308Z,101896.09
2022-12-17T01:30:56.828Z,101902.25
2022-12-17T01:34:17.080Z,101906.34
2022-12-17T01:37:37.154Z,101912.59
2022-12-17T01:40:57.357Z,101916.00
2022-12-17T01:44:17.703Z,101922.91
2022-12-17T01:47:39.484Z,101920.44
2022-12-17T01:51:02.784Z,101930.72
2022-12-17T01:54:23.459Z,101923.84
2022-12-17T01:57:44.204Z,101931.56
2022-12-17T02:01:04.576Z,101926.47
2022-12-17T02:04:27.605Z,101929.28
2022-12-17T02:08:01.990Z,101923.84
2022-12-17T02:11:33.841Z,101928.44
2022-12-17T02:15:00.363Z,101925.66
2022-12-17T02:18:26.964Z,101923.16
2022-12-17T02:21:51.085Z,101917.88
2022-12-17T02:25:31.781Z,101925.91
2022-12-17T02:28:59.918Z,101918.81
2022-12-17T02:32:21.117Z,101917.00
2022-12-17T02:35:45.853Z,101927.47
2022-12-17T02:39:06.115Z,101931.69
2022-12-17T02:42:26.371Z,101925.56
2022-12-17T02:45:48.046Z,101920.47
2022-12-17T02:49:08.442Z,101923.09
2022-12-17T02:52:34.788Z,101929.19
2022-12-17T02:55:55.956Z,101936.06
2022-12-17T02:59:21.633Z,101929.13
2022-12-17T03:02:43.365Z,101924.91
2022-12-17T03:06:03.594Z,101935.25
2022-12-17T03:09:23.951Z,101929.84
2022-12-17T03:12:44.141Z,101925.38
2022-12-17T03:16:04.442Z,101934.72
2022-12-17T03:19:27.334Z,101939.75
2022-12-17T03:22:47.727Z,101938.88
2022-12-17T03:26:08.060Z,101948.16
2022-12-17T03:29:28.328Z,101949.06
2022-12-17T03:32:48.563Z,101941.97
2022-12-17T03:36:12.948Z,101944.81
2022-12-17T03:39:33.167Z,101948.94
2022-12-17T03:42:53.461Z,101941.09
2022-12-17T03:46:28.308Z,101948.16
2022-12-17T03:49:48.315Z,101950.66
2022-12-17T03:53:09.994Z,101954.69
2022-12-17T03:56:30.396Z,101956.38
2022-12-17T03:59:50.443Z,101955.41
2022-12-17T04:03:11.183Z,101958.25
2022-12-17T04:06:31.409Z,101957.19
2022-12-17T04:09:53.210Z,101969.34
2022-12-17T04:13:13.386Z,101970.81
2022-12-17T04:16:33.727Z,101957.75
2022-12-17T04:19:54.035Z,101962.06
2022-12-17T04:23:14.376Z,101963.91
2022-12-17T04:26:35.873Z,101966.94
2022-12-17T04:29:56.189Z,101960.69
2022-12-17T04:33:16.410Z,101963.94
2022-12-17T04:36:36.798Z,101967.47
2022-12-17T04:39:56.982Z,101967.88
2022-12-17T04:43:25.643Z,101972.94
2022-12-17T04:46:45.981Z,101973.50
2022-12-17T04:50:06.208Z,101974.44
2022-12-17T04:53:26.482Z,101978.66
2022-12-17T04:56:46.745Z,101979.53
2022-12-17T05:00:08.370Z,101986.50
2022-12-17T05:03:30.726Z,101984.50
2022-12-17T05:06:51.041Z,101986.84
2022-12-17T05:10:11.344Z,102002.22
2022-12-17T05:13:31.650Z,101996.31
2022-12-17T05:16:53.027Z,101999.88
2022-12-17T05:20:13.365Z,101997.22
2022-12-17T05:23:33.897Z,101994.00
2022-12-17T05:26:54.469Z,101993.44
2022-12-17T05:30:17.264Z,101999.13
2022-12-17T05:33:39.191Z,102002.81
2022-12-17T05:36:59.724Z,102012.16
2022-12-17T05:40:20.004Z,102006.03
2022-12-17T05:43:40.022Z,102010.19
2022-12-17T05:47:00.318Z,102015.66
2022-12-17T05:50:22.742Z,102020.94
2022-12-17T05:53:39.470Z,102013.97
2022-12-17T05:56:59.889Z,102020.25
2022-12-17T06:00:20.249Z,102022.75
2022-12-17T06:03:40.905Z,102017.16
2022-12-17T06:07:02.772Z,102024.91
2022-12-17T06:10:23.611Z,102035.56
2022-12-17T06:13:43.888Z,102029.88
2022-12-17T06:17:04.041Z,102037.81
2022-12-17T06:20:27.019Z,102036.13
2022-12-17T06:23:48.445Z,102039.09
2022-12-17T06:27:08.883Z,102051.97
2022-12-17T06:30:26.321Z,102054.03
2022-12-17T06:33:46.497Z,102060.53
2022-12-17T06:37:06.761Z,102059.00
2022-12-17T06:40:29.564Z,102052.84
2022-12-17T06:43:49.809Z,102050.16
2022-12-17T06:47:10.189Z,102063.69
2022-12-17T06:50:30.508Z,102063.94
2022-12-17T06:53:50.847Z,102059.56
2022-12-17T06:57:23.752Z,102064.03
2022-12-17T07:00:44.551Z,102064.13
2022-12-17T07:04:05.016Z,102075.50
2022-12-17T07:07:25.313Z,102078.22
2022-12-17T07:10:45.603Z,102088.50
2022-12-17T07:14:07.451Z,102097.16
2022-12-17T07:17:27.657Z,102089.38
2022-12-17T07:20:47.830Z,102105.88
2022-12-17T07:24:08.063Z,102108.28
2022-12-17T07:27:28.316Z,102104.66
2022-12-17T07:30:55.508Z,102114.34
2022-12-17T07:34:15.899Z,102113.09
2022-12-17T07:37:36.208Z,102114.81
2022-12-17T07:40:56.384Z,102114.69
2022-12-17T07:44:17.568Z,102129.09
2022-12-17T07:47:39.113Z,102135.94
2022-12-17T07:50:59.409Z,102131.91
2022-12-17T07:54:19.667Z,102136.38
2022-12-17T07:57:40.066Z,102141.50
2022-12-17T08:01:00.304Z,102145.25
2022-12-17T08:04:21.845Z,102154.44
2022-12-17T08:07:42.096Z,102148.25
2022-12-17T08:11:07.416Z,102147.84
2022-12-17T08:14:27.672Z,102150.47
2022-12-17T08:17:47.921Z,102158.41
2022-12-17T08:21:09.417Z,102157.56
2022-12-17T08:24:29.733Z,102162.03
2022-12-17T08:27:49.872Z,102163.09
2022-12-17T08:31:10.217Z,102180.28
2022-12-17T08:34:30.521Z,102189.91
2022-12-17T08:38:03.466Z,102185.69
2022-12-17T08:41:23.492Z,102176.50
2022-12-17T08:44:43.669Z,102184.50
2022-12-17T08:48:04.448Z,102182.81
2022-12-17T08:51:36.255Z,102193.44
2022-12-17T08:54:57.847Z,102195.22
2022-12-17T08:58:18.174Z,102192.53
2022-12-17T09:01:38.419Z,102192.94
2022-12-17T09:04:58.349Z,102201.03
2022-12-17T09:08:21.328Z,102196.38
2022-12-17T09:11:42.761Z,102203.88
2022-12-17T09:15:03.250Z,102199.13
2022-12-17T09:18:23.607Z,102212.34
2022-12-17T09:21:45.416Z,102209.13
2022-12-17T09:25:05.574Z,102213.06
2022-12-17T09:28:27.104Z,102211.69
2022-12-17T09:31:48.275Z,102211.63
2022-12-17T09:35:08.653Z,102203.66
2022-12-17T09:38:30.983Z,102211.22
2022-12-17T09:42:01.824Z,102217.97
2022-12-17T09:45:30.445Z,102223.34
2022-12-17T09:48:58.942Z,102212.97
2022-12-17T09:52:19.153Z,102208.81
2022-12-17T09:55:44.063Z,102207.19
2022-12-17T09:59:04.310Z,102201.69
2022-12-17T10:02:32.195Z,102215.88
2022-12-17T10:05:53.899Z,102213.59
2022-12-17T10:09:16.649Z,102212.75
2022-12-17T10:12:38.863Z,102221.69
2022-12-17T10:16:00.275Z,102228.84
2022-12-17T10:19:22.363Z,102234.53
2022-12-17T10:22:42.660Z,102233.13
2022-12-17T10:26:10.079Z,102234.16
2022-12-17T10:29:45.704Z,102234.63
2022-12-17T10:33:14.200Z,102242.63
2022-12-17T10:36:42.650Z,102245.72
2022-12-17T10:40:11.577Z,102250.03
2022-12-17T10:43:42.536Z,102242.91
2022-12-17T10:47:02.807Z,102247.22
2022-12-17T10:50:27.509Z,102244.03
2022-12-17T10:53:49.076Z,102238.31
2022-12-17T10:57:20.112Z,102240.66
2022-12-17T11:00:47.415Z,102243.97
2022-12-17T11:04:11.725Z,102240.41
2022-12-17T11:07:37.432Z,102237.38
2022-12-17T11:11:01.434Z,102233.34
2022-12-17T11:14:24.096Z,102233.78
2022-12-17T11:17:45.034Z,102247.47
2022-12-17T11:21:12.681Z,102240.09
2022-12-17T11:24:41.016Z,102236.19
2022-12-17T11:28:06.705Z,102240.34
2022-12-17T11:31:50.642Z,102237.38
2022-12-17T11:35:22.029Z,102238.22
2022-12-17T11:38:51.634Z,102231.28
2022-12-17T11:42:18.200Z,102232.00
2022-12-17T11:45:48.234Z,102233.31
2022-12-17T11:49:20.584Z,102231.31
2022-12-17T11:52:52.570Z,102230.06
2022-12-17T11:56:18.913Z,102230.06
2022-12-17T11:59:52.514Z,102232.44
2022-12-17T12:03:24.144Z,102250.81
2022-12-17T12:06:54.556Z,102241.13
2022-12-17T12:10:17.966Z,102249.00
2022-12-17T12:13:56.294Z,102246.75
2022-12-17T12:17:26.334Z,102243.22
2022-12-17T12:21:03.602Z,102241.78
2022-12-17T12:24:36.039Z,102243.84
2022-12-17T12:28:03.993Z,102233.69
2022-12-17T12:31:33.279Z,102241.34
2022-12-17T12:34:55.986Z,102252.84
2022-12-17T12:38:19.463Z,102243.13
2022-12-17T12:41:48.282Z,102246.97
2022-12-17T12:45:18.623Z,102261.94
2022-12-17T12:49:05.123Z,102256.22
2022-12-17T12:52:33.584Z,102257.25
2022-12-17T12:55:59.503Z,102256.84
2022-12-17T12:59:29.921Z,102254.50
2022-12-17T13:02:51.520Z,102251.19
2022-12-17T13:05:55.330Z,102255.31
2022-12-17T13:09:06.045Z,102261.72
2022-12-17T13:12:25.353Z,102264.16
2022-12-17T13:15:37.116Z,102256.78
2022-12-17T13:18:40.760Z,102258.38
2022-12-17T13:21:43.850Z,102253.28
2022-12-17T13:24:48.170Z,102256.06
2022-12-17T13:27:52.195Z,102254.53
2022-12-17T13:31:18.700Z,102256.38
2022-12-17T13:34:27.041Z,102257.19
2022-12-17T13:37:41.345Z,102252.97
2022-12-17T13:40:47.579Z,102253.84
2022-12-17T13:43:54.309Z,102253.16
2022-12-17T13:46:56.966Z,102251.06
2022-12-17T13:50:32.804Z,102257.19
2022-12-17T13:53:24.180Z,102263.44
2022-12-17T13:56:29.239Z,102261.66
2022-12-17T13:59:33.195Z,102268.72
2022-12-17T14:02:39.264Z,102268.78
2022-12-17T14:05:45.929Z,102281.00
2022-12-17T14:08:50.607Z,102278.28
2022-12-17T14:12:11.291Z,102284.41
2022-12-17T14:15:24.252Z,102297.50
2022-12-17T14:18:26.940Z,102299.28
2022-12-17T14:21:30.474Z,102295.66
2022-12-17T14:24:33.775Z,102294.63
2022-12-17T14:27:37.625Z,102299.00
2022-12-17T14:31:09.678Z,102299.19
2022-12-17T14:34:08.738Z,102298.97
2022-12-17T14:37:18.418Z,102303.31
2022-12-17T14:40:21.162Z,102305.84
2022-12-17T14:43:29.917Z,102295.06
2022-12-17T14:46:35.847Z,102300.97
2022-12-17T14:49:50.897Z,102301.91
2022-12-17T14:52:59.969Z,102304.56
2022-12-17T14:56:02.583Z,102313.06
2022-12-17T14:59:05.143Z,102308.56
2022-12-17T15:02:20.761Z,102315.75
2022-12-17T15:05:23.508Z,102311.44
2022-12-17T15:08:26.368Z,102310.34
2022-12-17T15:11:28.936Z,102315.00
2022-12-17T15:14:31.487Z,102318.69
2022-12-17T15:17:35.414Z,102319.69
2022-12-17T15:20:38.329Z,102322.38
2022-12-17T15:23:44.000Z,102326.03
2022-12-17T15:26:46.974Z,102325.03
2022-12-17T15:29:49.541Z,102325.91
2022-12-17T15:32:53.515Z,102327.28
2022-12-17T15:35:58.662Z,102337.78
2022-12-17T15:39:01.373Z,102345.47
2022-12-17T15:42:21.340Z,102340.25
2022-12-17T15:45:26.803Z,102342.00
2022-12-17T15:48:31.168Z,102333.13
2022-12-17T15:51:33.769Z,102342.75
2022-12-17T15:54:36.333Z,102342.00
2022-12-17T15:57:38.909Z,102339.78
2022-12-17T16:00:41.514Z,102346.63
2022-12-17T16:03:45.556Z,102342.53
2022-12-17T16:06:48.192Z,102346.84
2022-12-17T16:09:50.816Z,102343.34
2022-12-17T16:12:53.375Z,102348.69
2022-12-17T16:16:02.124Z,102352.66
2022-12-17T16:19:07.726Z,102358.56
2022-12-17T16:22:10.325Z,102350.97
2022-12-17T16:25:13.276Z,102348.13
2022-12-17T16:28:15.845Z,102356.75
2022-12-17T16:31:18.481Z,102357.03
2022-12-17T16:34:22.498Z,102361.00
2022-12-17T16:37:25.071Z,102360.97
2022-12-17T16:40:28.134Z,102362.69
2022-12-17T16:43:35.200Z,102367.94
2022-12-17T16:46:39.909Z,102372.16
2022-12-17T16:49:43.905Z,102378.41
2022-12-17T16:52:47.519Z,102372.22
2022-12-17T16:55:50.844Z,102376.44
2022-12-17T16:58:53.496Z,102373.06
2022-12-17T17:01:57.073Z,102371.41
2022-12-17T17:05:01.166Z,102369.47
2022-12-17T17:08:03.850Z,102356.38
2022-12-17T17:11:11.945Z,102365.31
2022-12-17T17:14:14.551Z,102370.31
2022-12-17T17:17:17.129Z,102372.22
2022-12-17T17:20:21.097Z,102370.00
2022-12-17T17:23:23.661Z,102375.28
2022-12-17T17:26:27.008Z,102389.16
2022-12-17T17:29:29.609Z,102385.44
2022-12-17T17:32:32.251Z,102380.22
2022-12-17T17:35:36.198Z,102384.78
2022-12-17T17:38:40.924Z,102396.88
2022-12-17T17:41:43.673Z,102391.56
2022-12-17T17:44:46.233Z,102404.75
2022-12-17T17:47:48.828Z,102404.44
2022-12-17T17:51:04.201Z,102403.72
2022-12-17T17:54:12.563Z,102407.00
2022-12-17T17:57:16.870Z,102410.25
2022-12-17T18:00:19.627Z,102408.81
2022-12-17T18:03:22.256Z,102403.66
2022-12-17T18:06:27.366Z,102412.97
2022-12-17T18:09:30.009Z,102419.88
2022-12-17T18:12:50.275Z,102422.44
2022-12-17T18:15:52.866Z,102418.16
2022-12-17T18:18:56.785Z,102409.44
2022-12-17T18:22:00.726Z,102420.03
2022-12-17T18:25:03.449Z,102421.38
2022-12-17T18:28:06.060Z,102427.72
2022-12-17T18:31:10.807Z,102432.75
2022-12-17T18:34:14.780Z,102435.34
2022-12-17T18:37:18.757Z,102435.84
2022-12-17T18:40:21.358Z,102432.88
2022-12-17T18:43:25.944Z,102440.66
2022-12-17T18:46:28.678Z,102443.19
2022-12-17T18:49:31.280Z,102459.47
2022-12-17T18:52:35.234Z,102462.13
2022-12-17T18:55:40.378Z,102458.34
2022-12-17T18:58:43.598Z,102457.34
2022-12-17T19:01:46.993Z,102451.16
2022-12-17T19:04:49.751Z,102461.59
2022-12-17T19:07:53.701Z,102469.66
2022-12-17T19:10:56.264Z,102474.03
2022-12-17T19:13:59.067Z,102467.53
2022-12-17T19:17:01.889Z,102465.63
2022-12-17T19:20:04.998Z,102463.72
2022-12-17T19:23:08.949Z,102468.53
2022-12-17T19:26:14.015Z,102479.25
2022-12-17T19:29:18.864Z,102479.84
2022-12-17T19:32:21.467Z,102488.56
2022-12-17T19:35:24.062Z,102493.47
2022-12-17T19:38:28.093Z,102502.88
2022-12-17T19:41:31.929Z,102497.53
2022-12-17T19:44:34.495Z,102502.13
2022-12-17T19:47:37.076Z,102500.19
2022-12-17T19:50:39.633Z,102490.88
2022-12-17T19:53:45.045Z,102493.78
2022-12-17T19:56:47.654Z,102497.16
2022-12-17T19:59:50.216Z,102507.38
2022-12-17T20:02:52.995Z,102502.50
2022-12-17T20:05:55.863Z,102505.41
2022-12-17T20:09:00.522Z,102500.91
2022-12-17T20:12:03.145Z,102500.91
2022-12-17T20:15:06.587Z,102505.97
2022-12-17T20:18:09.197Z,102503.50
2022-12-17T20:21:11.771Z,102513.44
2022-12-17T20:24:16.579Z,102506.84
2022-12-17T20:27:19.623Z,102504.38
2022-12-17T20:30:25.238Z,102502.38
2022-12-17T20:33:27.848Z,102499.44
2022-12-17T20:36:30.507Z,102510.06
2022-12-17T20:39:34.546Z,102512.03
2022-12-17T20:42:37.226Z,102519.72
2022-12-17T20:45:39.925Z,102514.91
2022-12-17T20:48:44.094Z,102523.91
2022-12-17T20:51:46.702Z,102514.69
2022-12-17T20:54:50.612Z,102520.88
2022-12-17T20:57:53.357Z,102518.31
2022-12-17T21:01:04.096Z,102518.06
2022-12-17T21:04:07.413Z,102517.81
2022-12-17T21:07:10.036Z,102515.41
2022-12-17T21:10:14.150Z,102526.25
2022-12-17T21:13:32.024Z,102521.94
2022-12-17T21:16:35.027Z,102518.59
2022-12-17T21:19:37.966Z,102528.53
2022-12-17T21:22:41.529Z,102530.91
2022-12-17T21:25:45.446Z,102526.72
2022-12-17T21:28:49.899Z,102530.25
2022-12-17T21:31:53.371Z,102543.81
2022-12-17T21:34:56.055Z,102545.75
2022-12-17T21:37:58.657Z,102549.38
2022-12-17T21:41:07.568Z,102555.22
2022-12-17T21:44:13.917Z,102566.50
2022-12-17T21:47:18.161Z,102562.84
2022-12-17T21:50:20.777Z,102570.63
2022-12-17T21:53:24.155Z,102557.69
2022-12-17T21:56:30.731Z,102564.63
2022-12-17T21:59:33.320Z,102577.34
2022-12-17T22:02:36.042Z,102553.97
2022-12-17T22:05:39.328Z,102556.81
2022-12-17T22:08:43.029Z,102563.91
2022-12-17T22:11:47.437Z,102563.69
2022-12-17T22:14:49.378Z,102568.78
2022-12-17T22:17:53.607Z,102575.84
2022-12-17T22:20:58.141Z,102584.00
2022-12-17T22:24:00.730Z,102581.81
2022-12-17T22:27:09.459Z,102577.44
2022-12-17T22:30:33.213Z,102572.63
2022-12-17T22:34:16.676Z,102579.88
2022-12-17T22:40:37.273Z,102573.06
2022-12-17T22:44:15.006Z,102576.72
2022-12-17T22:44:43.046Z,102571.38
2022-12-17T22:47:07.615Z,102578.13
2022-12-17T22:50:10.989Z,102570.25
2022-12-17T22:53:14.152Z,102574.19
2022-12-17T22:56:49.459Z,102584.13
2022-12-17T22:59:41.663Z,102576.34
2022-12-17T23:02:44.344Z,102578.53
2022-12-17T23:05:47.159Z,102581.56
2022-12-17T23:08:49.801Z,102572.22
2022-12-17T23:11:52.377Z,102574.19
2022-12-17T23:14:56.299Z,102577.91
2022-12-17T23:18:01.373Z,102574.53
2022-12-17T23:21:08.587Z,102581.56
2022-12-17T23:24:11.279Z,102576.13
2022-12-17T23:27:13.879Z,102575.81
2022-12-17T23:30:18.525Z,102580.13
2022-12-17T23:33:21.199Z,102566.56
2022-12-17T23:36:25.817Z,102568.94
2022-12-17T23:39:28.414Z,102574.53
2022-12-17T23:42:31.102Z,102578.69
2022-12-17T23:45:35.037Z,102581.31
2022-12-17T23:48:45.360Z,102582.28
2022-12-17T23:51:48.478Z,102578.78
2022-12-17T23:54:51.036Z,102574.25
2022-12-17T23:57:56.629Z,102581.59
